Time;durP1;ratioP1;P1;durP2;ratioP2;P2;SDS_P1;SDS_P2;PMS_P1;PMS_P2;Temp;Humidity;BMP_temperature;BMP_pressure;BME280_temperature;BME280_humidity;BME280_pressure;Samples;Min_cycle;Max_cycle;Signal;HPM_P1;HPM_P2
2023/05/24 00:01:07;;;;;;;11.70;11.10;;;15.50;28.90;;;;;;5071735;28;20670;-76
2023/05/24 00:03:33;;;;;;;11.67;11.07;;;15.50;29.40;;;;;;5054522;28;20237;-75
2023/05/24 00:06:00;;;;;;;10.57;10.00;;;15.50;29.10;;;;;;5071490;28;20191;-75
2023/05/24 00:08:26;;;;;;;11.53;11.00;;;15.40;28.90;;;;;;5055023;28;20418;-75
2023/05/24 00:10:51;;;;;;;11.53;10.83;;;15.40;28.90;;;;;;5053695;28;20471;-75
2023/05/24 00:13:17;;;;;;;10.97;10.37;;;15.50;28.90;;;;;;5070111;28;20171;-75
2023/05/24 00:15:44;;;;;;;12.23;11.57;;;15.50;28.90;;;;;;5070467;28;20676;-75
2023/05/24 00:18:09;;;;;;;12.60;11.63;;;15.50;28.80;;;;;;5071795;28;20402;-75
2023/05/24 00:20:35;;;;;;;11.57;10.97;;;15.50;29.20;;;;;;5054524;28;20793;-75
2023/05/24 00:23:01;;;;;;;11.30;10.80;;;15.60;29.00;;;;;;5072158;28;20182;-75
2023/05/24 00:25:26;;;;;;;11.70;11.10;;;15.60;29.40;;;;;;5070451;28;20490;-77
2023/05/24 00:27:52;;;;;;;12.00;11.40;;;15.60;29.30;;;;;;5073271;28;20186;-75
2023/05/24 00:30:17;;;;;;;11.30;10.80;;;15.60;28.80;;;;;;5070949;28;20605;-75
2023/05/24 00:32:43;;;;;;;12.30;11.63;;;15.60;28.80;;;;;;5071155;28;20582;-75
2023/05/24 00:35:08;;;;;;;12.87;12.07;;;15.60;28.80;;;;;;5071082;28;20893;-74
2023/05/24 00:37:36;;;;;;;12.57;11.57;;;15.60;28.70;;;;;;5070544;28;20173;-75
2023/05/24 00:40:03;;;;;;;12.00;11.40;;;15.60;28.90;;;;;;5073036;28;20171;-75
2023/05/24 00:42:28;;;;;;;12.07;11.20;;;15.60;29.10;;;;;;5071129;28;20413;-76
2023/05/24 00:44:54;;;;;;;11.30;10.67;;;15.70;28.70;;;;;;5070448;28;20431;-75
2023/05/24 00:47:19;;;;;;;12.00;11.40;;;15.70;28.50;;;;;;5071842;28;20186;-76
2023/05/24 00:49:45;;;;;;;11.50;10.90;;;15.70;28.30;;;;;;5070034;28;20246;-75
2023/05/24 00:52:11;;;;;;;11.57;10.67;;;15.70;28.00;;;;;;5071127;28;20183;-75
2023/05/24 00:54:39;;;;;;;11.17;10.67;;;15.70;27.80;;;;;;5070279;28;20222;-74
2023/05/24 00:57:05;;;;;;;11.37;10.70;;;15.70;27.80;;;;;;5069552;28;20193;-75
2023/05/24 00:59:31;;;;;;;11.93;10.83;;;15.70;27.80;;;;;;5051711;28;20555;-74
2023/05/24 01:01:57;;;;;;;11.33;10.83;;;15.70;27.90;;;;;;5068904;28;20433;-75
2023/05/24 01:04:23;;;;;;;11.97;11.27;;;15.70;27.90;;;;;;5070826;28;20437;-74
2023/05/24 01:07:16;;;;;;;11.77;10.93;;;15.70;27.80;;;;;;5068420;28;20572;-75
2023/05/24 01:10:03;;;;;;;10.80;10.20;;;15.70;27.70;;;;;;5054493;28;20206;-75
2023/05/24 01:12:52;;;;;;;11.10;10.40;;;15.70;27.30;;;;;;5071750;28;21057;-76
2023/05/24 01:15:38;;;;;;;12.53;11.83;;;15.70;27.10;;;;;;5053062;28;20542;-74
2023/05/24 01:18:14;;;;;;;12.30;11.60;;;15.70;27.10;;;;;;5068734;28;20931;-75
2023/05/24 01:20:41;;;;;;;11.80;11.20;;;15.70;27.30;;;;;;5070598;28;20398;-75
2023/05/24 01:23:45;;;;;;;11.63;10.87;;;15.70;27.30;;;;;;5068813;28;20976;-75
2023/05/24 01:26:32;;;;;;;11.27;10.43;;;15.70;27.10;;;;;;5009126;28;20831;-75
2023/05/24 01:28:59;;;;;;;12.30;11.50;;;15.60;26.70;;;;;;5008819;28;20416;-76
2023/05/24 01:31:25;;;;;;;11.67;10.97;;;15.60;27.20;;;;;;5031697;28;20812;-74
2023/05/24 01:33:51;;;;;;;11.77;11.03;;;15.60;27.00;;;;;;5053460;28;20522;-75
2023/05/24 01:36:17;;;;;;;11.67;10.73;;;15.60;27.00;;;;;;5054035;28;20446;-75
2023/05/24 01:38:42;;;;;;;12.63;11.10;;;15.60;26.40;;;;;;5067879;28;20167;-75
2023/05/24 01:41:26;;;;;;;11.37;10.77;;;15.60;26.40;;;;;;5052910;28;20176;-74
2023/05/24 01:44:03;;;;;;;11.77;11.07;;;15.60;26.10;;;;;;5068978;28;20167;-75
2023/05/24 01:46:36;;;;;;;11.43;10.73;;;15.60;26.10;;;;;;5069994;28;21015;-75
2023/05/24 01:49:08;;;;;;;11.57;10.97;;;15.60;25.70;;;;;;5072925;28;20418;-75
2023/05/24 01:51:39;;;;;;;11.37;10.57;;;15.60;26.10;;;;;;5069333;28;21213;-75
2023/05/24 01:54:06;;;;;;;12.30;11.43;;;15.50;25.70;;;;;;5069107;28;20503;-75
2023/05/24 01:56:33;;;;;;;12.60;11.60;;;15.50;25.40;;;;;;5071453;28;20421;-74
2023/05/24 01:59:01;;;;;;;11.00;10.30;;;15.50;25.50;;;;;;5074523;28;20409;-74
2023/05/24 02:01:27;;;;;;;11.97;11.17;;;15.50;26.00;;;;;;5074175;28;20930;-75
2023/05/24 02:03:53;;;;;;;14.70;12.93;;;15.40;25.20;;;;;;5074400;28;20414;-75
2023/05/24 02:06:19;;;;;;;11.40;10.80;;;15.40;25.70;;;;;;5073061;28;20414;-76
2023/05/24 02:08:45;;;;;;;12.70;11.70;;;15.40;25.50;;;;;;5074787;28;20421;-75
2023/05/24 02:11:10;;;;;;;12.13;11.43;;;15.40;25.30;;;;;;5072256;28;20183;-75
2023/05/24 02:13:36;;;;;;;11.43;10.80;;;15.40;25.30;;;;;;5074534;28;20425;-76
2023/05/24 02:16:03;;;;;;;11.93;11.13;;;15.40;25.00;;;;;;5073594;28;20688;-75
2023/05/24 02:18:33;;;;;;;12.07;11.37;;;15.40;25.00;;;;;;5055563;28;20663;-75
2023/05/24 02:20:59;;;;;;;12.10;11.40;;;15.40;24.80;;;;;;5071003;28;20500;-75
2023/05/24 02:23:25;;;;;;;12.97;12.07;;;15.40;24.40;;;;;;5072858;28;20926;-75
2023/05/24 02:25:51;;;;;;;12.40;11.60;;;15.30;24.90;;;;;;5072908;28;20437;-76
2023/05/24 02:28:16;;;;;;;11.83;11.07;;;15.30;24.90;;;;;;5073425;28;20168;-75
2023/05/24 02:30:45;;;;;;;12.57;11.60;;;15.30;25.00;;;;;;5074213;28;20167;-75
2023/05/24 02:33:11;;;;;;;11.60;10.90;;;15.30;25.20;;;;;;5072014;28;20258;-76
2023/05/24 02:35:36;;;;;;;16.13;12.47;;;15.30;24.80;;;;;;5072444;28;20552;-75
2023/05/24 02:38:05;;;;;;;12.60;11.50;;;15.20;24.80;;;;;;5073547;28;20182;-75
2023/05/24 02:40:30;;;;;;;12.53;11.80;;;15.20;25.10;;;;;;5053799;28;20167;-75
2023/05/24 02:42:56;;;;;;;12.23;11.40;;;15.20;24.90;;;;;;5072961;28;20402;-75
2023/05/24 02:45:22;;;;;;;12.80;12.00;;;15.10;25.50;;;;;;5072151;28;20568;-76
2023/05/24 02:47:47;;;;;;;13.23;12.30;;;15.10;25.50;;;;;;5071485;28;20207;-75
2023/05/24 02:50:13;;;;;;;13.13;12.23;;;15.10;25.40;;;;;;5072085;28;20178;-76
2023/05/24 02:52:38;;;;;;;12.93;12.03;;;15.00;26.30;;;;;;5072958;28;20178;-76
2023/05/24 02:55:05;;;;;;;12.97;11.70;;;15.00;25.50;;;;;;5072537;28;20201;-75
2023/05/24 02:57:32;;;;;;;14.03;12.93;;;15.00;25.30;;;;;;5073459;28;20175;-75
2023/05/24 02:59:58;;;;;;;13.00;12.00;;;14.90;26.30;;;;;;5075419;28;20470;-75
2023/05/24 03:02:27;;;;;;;12.97;12.17;;;14.90;26.00;;;;;;5076250;28;20429;-75
2023/05/24 03:04:52;;;;;;;12.30;11.50;;;14.90;26.40;;;;;;5056625;28;20586;-75
2023/05/24 03:07:18;;;;;;;14.23;13.33;;;14.80;25.80;;;;;;5072841;28;20409;-76
2023/05/24 03:09:44;;;;;;;12.90;11.77;;;14.90;26.50;;;;;;5072282;28;20539;-75
2023/05/24 03:12:09;;;;;;;12.33;11.50;;;14.80;26.40;;;;;;5055655;28;20182;-75
2023/05/24 03:14:35;;;;;;;13.43;12.37;;;14.80;26.40;;;;;;5073550;28;20258;-75
2023/05/24 03:17:01;;;;;;;12.20;11.50;;;14.80;26.40;;;;;;5071726;28;20230;-76
2023/05/24 03:19:26;;;;;;;12.60;11.77;;;14.80;26.50;;;;;;5071886;28;20163;-75
2023/05/24 03:21:52;;;;;;;12.73;11.73;;;14.80;26.40;;;;;;5087806;28;20209;-75
2023/05/24 03:24:17;;;;;;;12.27;11.57;;;14.80;26.50;;;;;;5070190;28;20195;-75
2023/05/24 03:26:43;;;;;;;12.67;11.57;;;14.80;26.40;;;;;;5051726;28;20183;-75
2023/05/24 03:29:08;;;;;;;13.33;12.43;;;14.80;26.40;;;;;;5070672;28;20258;-75
2023/05/24 03:31:34;;;;;;;12.97;12.07;;;14.80;26.30;;;;;;5069563;28;20183;-75
2023/05/24 03:33:59;;;;;;;13.20;12.20;;;14.70;26.40;;;;;;5071576;28;20209;-75
2023/05/24 03:36:26;;;;;;;13.83;12.80;;;14.70;26.40;;;;;;5070637;28;20675;-75
2023/05/24 03:38:52;;;;;;;13.60;12.60;;;14.70;26.50;;;;;;5068957;28;20167;-74
2023/05/24 03:41:17;;;;;;;13.60;12.40;;;14.70;26.40;;;;;;5069483;28;20417;-75
2023/05/24 03:43:43;;;;;;;12.90;11.90;;;14.80;26.40;;;;;;5069188;28;20175;-75
2023/05/24 03:46:08;;;;;;;14.03;13.07;;;14.70;26.30;;;;;;5070153;28;20179;-76
2023/05/24 03:48:34;;;;;;;13.03;12.17;;;14.70;26.20;;;;;;5070581;28;20902;-75
2023/05/24 03:50:59;;;;;;;13.53;12.53;;;14.70;26.20;;;;;;5068845;28;20219;-75
2023/05/24 03:53:25;;;;;;;13.43;12.43;;;14.70;26.40;;;;;;5069112;28;20675;-76
2023/05/24 03:55:51;;;;;;;13.80;12.80;;;14.70;26.40;;;;;;5069778;28;20198;-75
2023/05/24 03:58:16;;;;;;;13.67;12.73;;;14.70;26.00;;;;;;5070500;28;20167;-75
2023/05/24 04:00:42;;;;;;;13.70;12.50;;;14.80;25.90;;;;;;5070062;28;20170;-75
2023/05/24 04:03:07;;;;;;;13.97;12.73;;;14.80;25.80;;;;;;5068848;28;20378;-75
2023/05/24 04:05:33;;;;;;;13.73;12.70;;;14.70;26.00;;;;;;5068271;28;20195;-76
2023/05/24 04:07:59;;;;;;;12.37;11.60;;;14.80;25.70;;;;;;5071791;28;20670;-75
2023/05/24 04:10:25;;;;;;;14.67;13.57;;;14.80;26.00;;;;;;5069455;28;20409;-75
2023/05/24 04:12:52;;;;;;;13.63;12.67;;;14.80;25.80;;;;;;5069687;28;20440;-75
2023/05/24 04:15:17;;;;;;;13.40;12.63;;;14.90;25.40;;;;;;5068626;28;21034;-73
2023/05/24 04:17:44;;;;;;;14.07;13.10;;;14.90;25.50;;;;;;5069137;28;20504;-74
2023/05/24 04:20:11;;;;;;;13.67;12.67;;;14.90;25.50;;;;;;5067630;28;20175;-74
2023/05/24 04:22:37;;;;;;;14.80;13.70;;;14.90;25.20;;;;;;5069647;28;20410;-74
2023/05/24 04:25:03;;;;;;;14.30;13.27;;;14.90;25.30;;;;;;5072128;28;20467;-75
2023/05/24 04:27:30;;;;;;;14.43;13.33;;;14.90;25.30;;;;;;5068691;28;20180;-75
2023/05/24 04:29:55;;;;;;;14.37;12.97;;;14.90;25.50;;;;;;5071560;28;20455;-75
2023/05/24 04:32:22;;;;;;;13.77;12.83;;;14.90;25.40;;;;;;5070916;28;20777;-75
2023/05/24 04:34:49;;;;;;;14.60;13.70;;;14.90;25.10;;;;;;5071083;28;20299;-74
2023/05/24 04:37:16;;;;;;;13.53;12.63;;;14.70;25.60;;;;;;5069638;28;20413;-75
2023/05/24 04:39:43;;;;;;;14.80;13.70;;;14.70;25.40;;;;;;5069908;28;20402;-75
2023/05/24 04:42:09;;;;;;;14.07;13.07;;;14.80;25.70;;;;;;5070714;28;20410;-75
2023/05/24 04:44:34;;;;;;;13.37;12.37;;;14.80;26.10;;;;;;5070793;28;20437;-74
2023/05/24 04:47:02;;;;;;;16.00;14.70;;;14.70;26.40;;;;;;5071486;28;20785;-73
2023/05/24 04:49:28;;;;;;;13.53;12.57;;;14.70;26.40;;;;;;5070761;28;20187;-74
2023/05/24 04:51:55;;;;;;;14.10;13.20;;;14.80;26.40;;;;;;5070677;28;20920;-73
2023/05/24 04:54:21;;;;;;;14.80;13.70;;;14.90;26.30;;;;;;5069360;28;20488;-74
2023/05/24 04:56:47;;;;;;;14.07;12.93;;;14.90;26.50;;;;;;5048399;28;20420;-74
2023/05/24 04:59:12;;;;;;;14.20;13.00;;;15.00;26.10;;;;;;5051954;28;20422;-74
2023/05/24 05:01:38;;;;;;;13.77;12.57;;;15.00;25.80;;;;;;5068606;28;20240;-74
2023/05/24 05:04:04;;;;;;;13.13;12.27;;;14.90;25.80;;;;;;5069795;28;20206;-74
2023/05/24 05:06:32;;;;;;;15.30;14.10;;;14.90;25.50;;;;;;5069209;28;20167;-73
2023/05/24 05:08:58;;;;;;;13.73;12.83;;;14.90;25.80;;;;;;5068896;28;20497;-74
2023/05/24 05:11:24;;;;;;;14.07;12.97;;;14.70;26.10;;;;;;5050320;28;20549;-74
2023/05/24 05:13:50;;;;;;;13.07;12.23;;;14.70;26.90;;;;;;5051433;28;20230;-74
2023/05/24 05:16:16;;;;;;;13.47;12.67;;;14.70;26.40;;;;;;5070436;28;20836;-73
2023/05/24 05:18:42;;;;;;;13.67;12.37;;;14.70;26.40;;;;;;5071212;28;20167;-73
2023/05/24 05:21:07;;;;;;;13.83;13.03;;;14.70;26.40;;;;;;5070024;28;20993;-74
2023/05/24 05:23:33;;;;;;;15.43;14.40;;;14.70;26.40;;;;;;5070940;28;20171;-74
2023/05/24 05:25:58;;;;;;;14.97;14.07;;;14.70;26.40;;;;;;5071766;28;20192;-74
2023/05/24 05:28:24;;;;;;;14.33;13.50;;;14.70;26.40;;;;;;5069304;28;20199;-74
2023/05/24 05:30:50;;;;;;;14.27;13.27;;;14.70;26.10;;;;;;5071815;28;20180;-74
2023/05/24 05:33:15;;;;;;;14.43;13.13;;;14.70;26.40;;;;;;5075087;28;20167;-74
2023/05/24 05:35:41;;;;;;;14.67;13.70;;;14.70;26.40;;;;;;5074055;28;20641;-74
2023/05/24 05:38:06;;;;;;;15.97;14.77;;;14.60;26.30;;;;;;5074622;28;20727;-73
2023/05/24 05:40:32;;;;;;;14.73;13.77;;;14.50;27.00;;;;;;5074794;28;20262;-74
2023/05/24 05:42:57;;;;;;;13.70;12.67;;;14.40;27.00;;;;;;5074004;28;20544;-74
2023/05/24 05:45:23;;;;;;;13.30;12.40;;;14.40;26.20;;;;;;5075420;28;20556;-73
2023/05/24 05:47:49;;;;;;;14.07;13.27;;;14.40;26.20;;;;;;5074540;28;20179;-74
2023/05/24 05:50:14;;;;;;;14.13;13.03;;;14.50;26.20;;;;;;5073467;28;21101;-75
2023/05/24 05:52:40;;;;;;;14.07;13.00;;;14.60;26.30;;;;;;5074865;28;20267;-75
2023/05/24 05:55:07;;;;;;;14.60;13.47;;;14.60;25.60;;;;;;5057013;28;20216;-75
2023/05/24 05:57:32;;;;;;;14.40;13.13;;;14.60;27.10;;;;;;5074736;28;20415;-74
2023/05/24 05:59:58;;;;;;;14.03;12.83;;;14.60;26.40;;;;;;5074871;28;20500;-74
2023/05/24 06:02:24;;;;;;;13.90;12.50;;;14.60;25.80;;;;;;5055035;28;20277;-73
2023/05/24 06:04:49;;;;;;;14.00;12.93;;;14.50;26.10;;;;;;5074370;28;20187;-73
2023/05/24 06:07:15;;;;;;;13.00;11.97;;;14.40;26.20;;;;;;5074208;28;20177;-74
2023/05/24 06:09:40;;;;;;;13.03;12.10;;;14.50;26.70;;;;;;5056182;28;20184;-74
2023/05/24 06:12:06;;;;;;;13.57;12.10;;;14.50;26.20;;;;;;5071635;28;20184;-74
2023/05/24 06:14:33;;;;;;;13.20;12.20;;;14.60;25.80;;;;;;5073272;28;21081;-75
2023/05/24 06:16:58;;;;;;;13.47;12.40;;;14.60;25.60;;;;;;5073752;28;20179;-75
2023/05/24 06:19:24;;;;;;;13.50;12.57;;;14.60;25.30;;;;;;5074866;28;20413;-77
2023/05/24 06:21:50;;;;;;;12.40;11.60;;;14.60;25.40;;;;;;5073951;28;20721;-74
2023/05/24 06:24:20;;;;;;;13.30;12.40;;;14.60;25.60;;;;;;5071721;28;20218;-74
2023/05/24 06:26:50;;;;;;;15.37;14.20;;;14.50;25.30;;;;;;5071924;28;21354;-75
2023/05/24 06:29:15;;;;;;;13.40;12.43;;;14.30;26.10;;;;;;5054229;28;21132;-75
2023/05/24 06:31:42;;;;;;;14.60;13.50;;;14.10;26.00;;;;;;5071166;28;20414;-75
2023/05/24 06:34:07;;;;;;;14.70;13.70;;;14.20;26.00;;;;;;5071194;28;20221;-75
2023/05/24 06:36:34;;;;;;;12.97;12.17;;;14.20;26.10;;;;;;5070497;28;20488;-75
2023/05/24 06:39:02;;;;;;;16.33;14.83;;;14.30;26.10;;;;;;5053611;28;20176;-74
2023/05/24 06:41:28;;;;;;;13.90;13.07;;;14.10;26.00;;;;;;5054740;28;20463;-74
2023/05/24 06:43:54;;;;;;;13.30;12.47;;;14.00;26.70;;;;;;5072460;28;20410;-75
2023/05/24 06:46:19;;;;;;;13.27;12.37;;;14.00;26.90;;;;;;5072863;28;20205;-74
2023/05/24 06:48:45;;;;;;;13.47;12.57;;;14.10;26.60;;;;;;5055303;28;20233;-74
2023/05/24 06:51:10;;;;;;;14.23;13.10;;;14.20;26.60;;;;;;5071041;28;20175;-75
2023/05/24 06:53:36;;;;;;;13.40;12.50;;;14.30;26.40;;;;;;5052833;28;20183;-74
2023/05/24 06:56:01;;;;;;;14.00;12.90;;;14.40;26.20;;;;;;5072367;28;20650;-74
2023/05/24 06:58:27;;;;;;;13.73;12.73;;;14.50;26.20;;;;;;5071801;28;20176;-74
2023/05/24 07:00:53;;;;;;;13.27;12.27;;;14.50;26.20;;;;;;5069420;28;20257;-76
2023/05/24 07:03:18;;;;;;;13.73;12.83;;;14.40;26.20;;;;;;5072064;28;20175;-74
2023/05/24 07:05:44;;;;;;;13.63;12.63;;;14.50;26.20;;;;;;5073029;28;20558;-73
2023/05/24 07:08:10;;;;;;;14.27;13.07;;;14.60;26.00;;;;;;5072949;28;20297;-73
2023/05/24 07:10:36;;;;;;;14.17;13.10;;;14.60;26.00;;;;;;5072047;28;20476;-75
2023/05/24 07:13:02;;;;;;;13.77;12.73;;;14.70;25.70;;;;;;5072303;28;20191;-75
2023/05/24 07:15:29;;;;;;;13.17;12.27;;;14.70;25.50;;;;;;5071261;28;20564;-75
2023/05/24 07:17:55;;;;;;;13.00;11.87;;;14.70;25.40;;;;;;5070211;28;20420;-75
2023/05/24 07:20:20;;;;;;;12.60;11.70;;;14.70;25.50;;;;;;5072971;28;20413;-74
2023/05/24 07:22:46;;;;;;;13.80;12.70;;;14.50;26.10;;;;;;5073059;28;20177;-75
2023/05/24 07:25:11;;;;;;;13.73;12.47;;;14.60;26.30;;;;;;5072994;28;20191;-74
2023/05/24 07:27:37;;;;;;;13.53;11.70;;;14.60;26.00;;;;;;5073138;28;20209;-75
2023/05/24 07:30:03;;;;;;;13.60;12.50;;;14.60;25.80;;;;;;5072941;28;20178;-74
2023/05/24 07:32:29;;;;;;;13.70;12.60;;;14.50;26.20;;;;;;5072140;28;20172;-75
2023/05/24 07:34:55;;;;;;;14.43;13.07;;;14.60;26.30;;;;;;5054333;28;20473;-74
2023/05/24 07:37:22;;;;;;;13.17;12.13;;;14.60;26.40;;;;;;5055081;28;20654;-74
2023/05/24 07:39:49;;;;;;;14.53;13.40;;;14.60;25.80;;;;;;5072787;28;20563;-74
2023/05/24 07:42:14;;;;;;;13.23;12.37;;;14.60;25.80;;;;;;5072490;28;20467;-73
2023/05/24 07:44:41;;;;;;;13.83;12.77;;;14.60;26.30;;;;;;5072745;28;20434;-74
2023/05/24 07:47:06;;;;;;;14.07;12.90;;;14.60;26.20;;;;;;5073018;28;20170;-75
2023/05/24 07:49:32;;;;;;;14.40;13.00;;;14.70;26.00;;;;;;5072834;28;20410;-74
2023/05/24 07:51:59;;;;;;;13.83;12.80;;;14.70;25.90;;;;;;5054343;28;20197;-75
2023/05/24 07:54:25;;;;;;;14.10;13.00;;;14.80;25.70;;;;;;5071800;28;20199;-75
2023/05/24 07:56:51;;;;;;;15.47;14.03;;;14.70;25.90;;;;;;5072495;28;20417;-75
2023/05/24 07:59:16;;;;;;;13.90;13.10;;;14.70;25.70;;;;;;5054408;28;20414;-76
2023/05/24 08:01:42;;;;;;;15.27;14.07;;;14.70;25.60;;;;;;5072300;28;20183;-75
2023/05/24 08:04:08;;;;;;;15.40;13.90;;;14.70;25.70;;;;;;5072342;28;20195;-75
2023/05/24 08:06:34;;;;;;;14.80;13.60;;;14.60;25.80;;;;;;5071993;28;20195;-76
2023/05/24 08:09:01;;;;;;;14.80;13.63;;;14.70;25.90;;;;;;5054244;28;20467;-75
2023/05/24 08:11:26;;;;;;;13.73;12.93;;;14.60;26.20;;;;;;5071415;28;20640;-74
2023/05/24 08:13:52;;;;;;;14.57;13.57;;;14.60;25.80;;;;;;5072273;28;20456;-75
2023/05/24 08:16:18;;;;;;;13.90;12.63;;;14.60;25.80;;;;;;5071788;28;20198;-74
2023/05/24 08:18:43;;;;;;;14.37;13.23;;;14.60;26.30;;;;;;5072202;28;20199;-74
2023/05/24 08:21:09;;;;;;;13.33;12.43;;;14.60;26.30;;;;;;5071506;28;20193;-75
2023/05/24 08:23:35;;;;;;;17.73;13.27;;;14.60;25.90;;;;;;5071820;28;20222;-74
2023/05/24 08:26:01;;;;;;;13.67;12.87;;;14.60;26.00;;;;;;5072076;28;20229;-75
2023/05/24 08:28:27;;;;;;;13.90;13.00;;;14.60;25.60;;;;;;5071836;28;20405;-74
2023/05/24 08:30:57;;;;;;;14.17;12.87;;;14.70;25.30;;;;;;5072090;28;20194;-72
2023/05/24 08:33:23;;;;;;;13.50;12.50;;;14.60;25.30;;;;;;5052904;28;20413;-75
2023/05/24 08:35:50;;;;;;;13.23;12.30;;;14.70;25.50;;;;;;5071313;28;20995;-73
2023/05/24 08:38:15;;;;;;;13.77;12.80;;;14.60;25.50;;;;;;5071724;28;20532;-75
2023/05/24 08:40:41;;;;;;;13.57;12.10;;;14.60;25.60;;;;;;5071721;28;20422;-75
2023/05/24 08:43:10;;;;;;;16.40;13.83;;;14.70;25.70;;;;;;5071110;28;20180;-74
2023/05/24 08:45:38;;;;;;;13.80;12.60;;;14.50;25.80;;;;;;5071981;28;20441;-74
2023/05/24 08:48:05;;;;;;;13.73;12.53;;;14.50;26.10;;;;;;5071888;28;20414;-75
2023/05/24 08:50:32;;;;;;;14.27;13.17;;;14.60;25.20;;;;;;5072153;28;20424;-75
2023/05/24 08:52:58;;;;;;;13.43;12.33;;;14.40;26.20;;;;;;5071719;28;20934;-74
2023/05/24 08:55:24;;;;;;;14.37;13.13;;;14.50;25.80;;;;;;5072485;28;20844;-75
2023/05/24 08:57:51;;;;;;;14.63;13.30;;;14.60;25.80;;;;;;5073221;28;20441;-75
2023/05/24 09:00:18;;;;;;;14.40;13.40;;;14.70;25.50;;;;;;5073704;28;20410;-74
2023/05/24 09:02:44;;;;;;;13.33;12.27;;;14.70;25.20;;;;;;5080251;28;20483;-75
2023/05/24 09:05:13;;;;;;;14.77;13.30;;;14.70;24.90;;;;;;5078719;28;20481;-74
2023/05/24 09:07:40;;;;;;;13.87;12.87;;;14.70;24.60;;;;;;5078120;28;20471;-75
2023/05/24 09:10:08;;;;;;;12.73;11.83;;;14.70;24.70;;;;;;5077264;28;20417;-75
2023/05/24 09:12:38;;;;;;;14.13;13.00;;;14.70;24.80;;;;;;5075868;28;20405;-74
2023/05/24 09:15:06;;;;;;;16.17;14.47;;;14.70;24.90;;;;;;5075289;28;20465;-74
2023/05/24 09:17:33;;;;;;;14.10;13.00;;;14.70;24.80;;;;;;5075178;28;20418;-75
2023/05/24 09:19:59;;;;;;;12.17;11.17;;;14.70;24.60;;;;;;5071763;28;20417;-74
2023/05/24 09:22:26;;;;;;;14.60;13.27;;;14.70;24.80;;;;;;5070479;28;20896;-75
2023/05/24 09:24:56;;;;;;;13.80;12.53;;;14.80;24.90;;;;;;5071555;28;20245;-75
2023/05/24 09:27:22;;;;;;;12.80;11.90;;;14.70;25.00;;;;;;5071316;28;20402;-75
2023/05/24 09:29:50;;;;;;;14.90;12.60;;;14.80;24.60;;;;;;5071194;28;21164;-75
2023/05/24 09:32:17;;;;;;;12.97;11.67;;;14.80;24.70;;;;;;5071027;28;20199;-75
2023/05/24 09:34:46;;;;;;;13.57;12.57;;;14.80;25.20;;;;;;5070895;28;20457;-75
2023/05/24 09:37:16;;;;;;;13.80;12.63;;;14.80;25.30;;;;;;5071119;28;20412;-75
2023/05/24 09:39:43;;;;;;;13.03;12.17;;;14.80;25.30;;;;;;5070835;28;20417;-74
2023/05/24 09:42:16;;;;;;;13.37;12.13;;;14.90;24.60;;;;;;5070568;28;20402;-75
2023/05/24 09:44:42;;;;;;;13.07;11.97;;;14.90;24.10;;;;;;5071119;28;20528;-74
2023/05/24 09:47:08;;;;;;;13.83;12.83;;;14.90;24.10;;;;;;5071470;28;20438;-74
2023/05/24 09:49:36;;;;;;;14.50;13.07;;;14.90;24.00;;;;;;5052883;28;20457;-75
2023/05/24 09:52:02;;;;;;;14.53;13.33;;;14.90;24.20;;;;;;5070745;28;20261;-75
2023/05/24 09:54:28;;;;;;;13.40;12.40;;;14.90;24.00;;;;;;5070739;28;20469;-75
2023/05/24 09:56:53;;;;;;;12.70;11.90;;;14.90;24.20;;;;;;5070831;28;20666;-75
2023/05/24 09:59:19;;;;;;;13.50;12.37;;;14.90;24.90;;;;;;5071632;28;20908;-75
2023/05/24 10:01:45;;;;;;;13.53;12.60;;;14.80;24.60;;;;;;5070252;28;20194;-75
2023/05/24 10:04:12;;;;;;;15.23;13.93;;;14.70;24.80;;;;;;5070764;28;20430;-75
2023/05/24 10:06:41;;;;;;;14.77;13.40;;;14.70;25.00;;;;;;5070760;28;20783;-76
2023/05/24 10:09:08;;;;;;;14.30;13.30;;;14.70;25.50;;;;;;5070541;28;20422;-76
2023/05/24 10:11:37;;;;;;;14.80;13.60;;;14.60;25.20;;;;;;5051394;28;21041;-76
2023/05/24 10:14:08;;;;;;;14.87;13.77;;;14.60;25.00;;;;;;5070630;28;20994;-75
2023/05/24 10:16:36;;;;;;;14.00;12.80;;;14.70;24.90;;;;;;5070790;28;20416;-73
2023/05/24 10:19:03;;;;;;;15.10;13.73;;;14.60;24.90;;;;;;5074204;28;20442;-75
2023/05/24 10:21:31;;;;;;;14.07;12.70;;;14.60;24.70;;;;;;5073092;28;20406;-74
2023/05/24 10:23:58;;;;;;;14.90;13.83;;;14.60;24.20;;;;;;5074218;28;20410;-74
2023/05/24 10:26:28;;;;;;;13.93;13.03;;;14.50;24.50;;;;;;5074198;28;20941;-75
2023/05/24 10:28:59;;;;;;;14.43;13.33;;;14.50;24.70;;;;;;5056192;28;20402;-75
2023/05/24 10:31:33;;;;;;;15.87;14.03;;;14.40;24.70;;;;;;5073763;28;20471;-75
2023/05/24 10:34:01;;;;;;;14.57;13.23;;;14.50;24.40;;;;;;5074073;28;20955;-75
2023/05/24 10:36:26;;;;;;;13.83;12.60;;;14.50;24.20;;;;;;5073976;28;20496;-75
2023/05/24 10:38:53;;;;;;;15.97;14.50;;;14.50;24.20;;;;;;5074113;28;20942;-74
2023/05/24 10:41:19;;;;;;;13.37;12.57;;;14.60;23.80;;;;;;5073142;28;20178;-74
2023/05/24 10:43:46;;;;;;;14.20;13.20;;;14.60;23.70;;;;;;5055804;28;20422;-75
2023/05/24 10:46:15;;;;;;;14.77;13.67;;;14.60;23.80;;;;;;5074061;28;20165;-76
2023/05/24 10:48:41;;;;;;;14.53;13.37;;;14.50;23.40;;;;;;5073967;28;20414;-75
2023/05/24 10:51:31;;;;;;;15.40;14.07;;;14.50;23.70;;;;;;5055461;28;20418;-76
2023/05/24 10:54:09;;;;;;;15.20;14.30;;;14.50;23.80;;;;;;5073568;28;20805;-75
2023/05/24 10:56:40;;;;;;;15.43;13.80;;;14.50;23.80;;;;;;5073365;28;20919;-74
2023/05/24 10:59:07;;;;;;;14.03;13.00;;;14.50;23.70;;;;;;5074686;28;20401;-75
2023/05/24 11:01:33;;;;;;;15.10;13.77;;;14.50;23.80;;;;;;5074052;28;20433;-74
2023/05/24 11:04:16;;;;;;;14.43;13.23;;;14.50;23.00;;;;;;5073991;28;20773;-75
2023/05/24 11:06:49;;;;;;;14.83;13.63;;;14.60;22.90;;;;;;5055693;28;20425;-74
2023/05/24 11:09:19;;;;;;;32.27;28.77;;;14.50;22.70;;;;;;5073524;28;20770;-75
2023/05/24 11:11:46;;;;;;;22.33;18.80;;;14.60;23.50;;;;;;5073311;28;20408;-76
2023/05/24 11:14:18;;;;;;;16.40;12.67;;;14.70;23.20;;;;;;5056226;28;20464;-75
2023/05/24 11:16:45;;;;;;;24.97;22.80;;;14.80;22.70;;;;;;5074380;28;20402;-75
2023/05/24 11:19:22;;;;;;;14.60;13.60;;;14.90;22.40;;;;;;5073870;28;20412;-75
2023/05/24 11:21:49;;;;;;;23.53;21.27;;;14.60;21.90;;;;;;5058108;28;20466;-75
2023/05/24 11:24:17;;;;;;;14.00;13.00;;;14.50;23.30;;;;;;5035854;28;21063;-74
2023/05/24 11:26:43;;;;;;;13.30;12.30;;;14.50;22.70;;;;;;5054177;28;20410;-75
2023/05/24 11:29:12;;;;;;;14.10;13.07;;;14.50;22.40;;;;;;5052863;28;20505;-75
2023/05/24 11:31:38;;;;;;;13.10;12.10;;;14.60;22.30;;;;;;5053243;28;20425;-75
2023/05/24 11:34:08;;;;;;;14.37;13.20;;;14.50;22.20;;;;;;5035184;28;20454;-75
2023/05/24 11:36:35;;;;;;;14.67;13.30;;;14.50;22.10;;;;;;5053902;28;20434;-75
2023/05/24 11:39:02;;;;;;;14.53;13.23;;;14.60;21.80;;;;;;5055217;28;20425;-75
2023/05/24 11:41:28;;;;;;;15.17;14.10;;;14.70;22.30;;;;;;5053881;28;20447;-74
2023/05/24 11:43:53;;;;;;;14.23;13.07;;;14.70;21.70;;;;;;5055063;28;20403;-75
2023/05/24 11:46:19;;;;;;;14.47;13.30;;;14.70;21.60;;;;;;5054283;28;20168;-75
2023/05/24 11:48:58;;;;;;;14.73;13.60;;;14.90;21.20;;;;;;5054468;28;20164;-75
2023/05/24 11:51:28;;;;;;;16.20;14.60;;;15.00;21.40;;;;;;5035391;28;20171;-76
2023/05/24 11:53:55;;;;;;;18.47;16.67;;;15.20;20.90;;;;;;5054275;28;20488;-76
2023/05/24 11:56:22;;;;;;;15.87;14.33;;;15.20;20.30;;;;;;5037513;28;20415;-76
2023/05/24 11:58:52;;;;;;;13.77;12.47;;;15.20;20.00;;;;;;5059302;28;20403;-75
2023/05/24 12:01:27;;;;;;;14.03;12.97;;;15.40;20.20;;;;;;5055118;28;20426;-74
2023/05/24 12:03:53;;;;;;;13.83;12.80;;;15.50;18.80;;;;;;5055761;28;20438;-75
2023/05/24 12:06:20;;;;;;;13.03;12.23;;;15.50;18.60;;;;;;5057812;28;20417;-74
2023/05/24 12:08:46;;;;;;;13.47;12.33;;;15.50;17.70;;;;;;5059076;28;20406;-75
2023/05/24 12:11:12;;;;;;;13.17;12.27;;;15.50;17.00;;;;;;5055340;28;20422;-74
2023/05/24 12:13:39;;;;;;;13.07;12.23;;;15.60;17.50;;;;;;5059048;28;20414;-74
2023/05/24 12:16:05;;;;;;;14.23;12.80;;;15.70;16.10;;;;;;5059070;28;20470;-74
2023/05/24 12:18:31;;;;;;;12.90;12.10;;;15.70;16.10;;;;;;5059758;28;20433;-75
2023/05/24 12:20:56;;;;;;;13.37;12.37;;;15.70;16.20;;;;;;5060645;28;20779;-74
2023/05/24 12:23:25;;;;;;;13.20;12.10;;;15.70;16.60;;;;;;5059375;28;20418;-74
2023/05/24 12:25:58;;;;;;;12.60;11.50;;;15.80;17.20;;;;;;5058384;28;20199;-75
2023/05/24 12:28:23;;;;;;;12.10;11.00;;;15.90;17.30;;;;;;5057307;28;20415;-75